sensor_id;sensor_type;location;lat;lon;timestamp;pressure;altitude;pressure_sealevel;temperature;humidity
71059;BME280;70265;47.576;19.270;2023-06-14T00:00:57;62501.59;;;-141.66;100.00
71059;BME280;70265;47.576;19.270;2023-06-14T00:01:59;62501.59;;;-141.66;100.00
71059;BME280;70265;47.576;19.270;2023-06-14T00:03:03;62501.59;;;-141.66;100.00
71059;BME280;70265;47.576;19.270;2023-06-14T00:04:05;62501.59;;;-141.66;100.00
71059;BME280;70265;47.576;19.270;2023-06-14T00:05:10;62501.59;;;-141.66;100.00
71059;BME280;70265;47.576;19.270;2023-06-14T00:06:15;62501.59;;;-141.66;100.00
71059;BME280;70265;47.576;19.270;2023-06-14T00:07:22;62501.59;;;-141.66;100.00
71059;BME280;70265;47.576;19.270;2023-06-14T00:08:34;62501.59;;;-141.66;100.00
71059;BME280;70265;47.576;19.270;2023-06-14T00:09:38;62501.59;;;-141.66;100.00
71059;BME280;70265;47.576;19.270;2023-06-14T00:10:39;62501.59;;;-141.66;100.00
71059;BME280;70265;47.576;19.270;2023-06-14T00:11:44;62501.59;;;-141.66;100.00
71059;BME280;70265;47.576;19.270;2023-06-14T00:12:46;62501.59;;;-141.66;100.00
71059;BME280;70265;47.576;19.270;2023-06-14T00:13:49;62501.59;;;-141.66;100.00
71059;BME280;70265;47.576;19.270;2023-06-14T00:14:51;62501.59;;;-141.66;100.00
71059;BME280;70265;47.576;19.270;2023-06-14T00:15:55;62501.59;;;-141.66;100.00
71059;BME280;70265;47.576;19.270;2023-06-14T00:16:56;62501.59;;;-141.66;100.00
71059;BME280;70265;47.576;19.270;2023-06-14T00:18:02;62501.59;;;-141.66;100.00
71059;BME280;70265;47.576;19.270;2023-06-14T00:19:04;62501.59;;;-141.66;100.00
71059;BME280;70265;47.576;19.270;2023-06-14T00:20:10;62501.59;;;-141.66;100.00
71059;BME280;70265;47.576;19.270;2023-06-14T00:21:12;62501.59;;;-141.66;100.00
71059;BME280;70265;47.576;19.270;2023-06-14T00:22:18;62501.59;;;-141.66;100.00
71059;BME280;70265;47.576;19.270;2023-06-14T00:23:23;62501.59;;;-141.66;100.00
71059;BME280;70265;47.576;19.270;2023-06-14T00:24:27;62501.59;;;-141.66;100.00
71059;BME280;70265;47.576;19.270;2023-06-14T00:25:28;62501.59;;;-141.66;100.00
71059;BME280;70265;47.576;19.270;2023-06-14T00:26:32;62501.59;;;-141.66;100.00
71059;BME280;70265;47.576;19.270;2023-06-14T00:27:33;62501.59;;;-141.66;100.00
71059;BME280;70265;47.576;19.270;2023-06-14T00:28:37;62501.59;;;-141.66;100.00
71059;BME280;70265;47.576;19.270;2023-06-14T00:29:39;62501.59;;;-141.66;100.00
71059;BME280;70265;47.576;19.270;2023-06-14T00:30:43;62501.59;;;-141.66;100.00
71059;BME280;70265;47.576;19.270;2023-06-14T00:31:47;62501.59;;;-141.66;100.00
71059;BME280;70265;47.576;19.270;2023-06-14T00:32:50;62501.59;;;-141.66;100.00
71059;BME280;70265;47.576;19.270;2023-06-14T00:33:52;62501.59;;;-141.66;100.00
71059;BME280;70265;47.576;19.270;2023-06-14T00:34:55;62501.59;;;-141.66;100.00
71059;BME280;70265;47.576;19.270;2023-06-14T00:35:57;62501.59;;;-141.66;100.00
71059;BME280;70265;47.576;19.270;2023-06-14T00:37:01;62501.59;;;-141.66;100.00
71059;BME280;70265;47.576;19.270;2023-06-14T00:38:05;62501.59;;;-141.66;100.00
71059;BME280;70265;47.576;19.270;2023-06-14T00:39:09;62501.59;;;-141.66;100.00
71059;BME280;70265;47.576;19.270;2023-06-14T00:40:10;62501.59;;;-141.66;100.00
71059;BME280;70265;47.576;19.270;2023-06-14T00:41:15;62501.59;;;-141.66;100.00
71059;BME280;70265;47.576;19.270;2023-06-14T00:42:25;62501.59;;;-141.66;100.00
71059;BME280;70265;47.576;19.270;2023-06-14T00:43:30;62501.59;;;-141.66;100.00
71059;BME280;70265;47.576;19.270;2023-06-14T00:44:31;62501.59;;;-141.66;100.00
71059;BME280;70265;47.576;19.270;2023-06-14T00:45:35;62501.59;;;-141.66;100.00
71059;BME280;70265;47.576;19.270;2023-06-14T00:46:36;62501.59;;;-141.66;100.00
71059;BME280;70265;47.576;19.270;2023-06-14T00:47:41;62501.59;;;-141.66;100.00
71059;BME280;70265;47.576;19.270;2023-06-14T00:48:43;62501.59;;;-141.66;100.00
71059;BME280;70265;47.576;19.270;2023-06-14T00:49:48;62501.59;;;-141.66;100.00
71059;BME280;70265;47.576;19.270;2023-06-14T00:50:51;62501.59;;;-141.66;100.00
71059;BME280;70265;47.576;19.270;2023-06-14T00:51:56;62501.59;;;-141.66;100.00
71059;BME280;70265;47.576;19.270;2023-06-14T00:52:57;62501.59;;;-141.66;100.00
71059;BME280;70265;47.576;19.270;2023-06-14T00:54:04;62501.59;;;-141.66;100.00
71059;BME280;70265;47.576;19.270;2023-06-14T00:55:09;62501.59;;;-141.66;100.00
71059;BME280;70265;47.576;19.270;2023-06-14T00:56:13;62501.59;;;-141.66;100.00
71059;BME280;70265;47.576;19.270;2023-06-14T00:57:15;62501.59;;;-141.66;100.00
71059;BME280;70265;47.576;19.270;2023-06-14T00:58:22;62501.59;;;-141.66;100.00
71059;BME280;70265;47.576;19.270;2023-06-14T00:59:23;62501.59;;;-141.66;100.00
71059;BME280;70265;47.576;19.270;2023-06-14T01:00:28;62501.59;;;-141.66;100.00
71059;BME280;70265;47.576;19.270;2023-06-14T01:01:30;62501.59;;;-141.66;100.00
71059;BME280;70265;47.576;19.270;2023-06-14T01:02:35;62501.59;;;-141.66;100.00
71059;BME280;70265;47.576;19.270;2023-06-14T01:03:38;62501.59;;;-141.66;100.00
71059;BME280;70265;47.576;19.270;2023-06-14T01:04:43;62501.59;;;-141.66;100.00
71059;BME280;70265;47.576;19.270;2023-06-14T01:05:46;62501.59;;;-141.66;100.00
71059;BME280;70265;47.576;19.270;2023-06-14T01:06:58;62501.59;;;-141.66;100.00
71059;BME280;70265;47.576;19.270;2023-06-14T01:08:16;62501.59;;;-141.66;100.00
71059;BME280;70265;47.576;19.270;2023-06-14T01:09:29;62501.59;;;-141.66;100.00
71059;BME280;70265;47.576;19.270;2023-06-14T01:10:42;62501.59;;;-141.66;100.00
71059;BME280;70265;47.576;19.270;2023-06-14T01:11:56;62501.59;;;-141.66;100.00
71059;BME280;70265;47.576;19.270;2023-06-14T01:13:06;62501.59;;;-141.66;100.00
71059;BME280;70265;47.576;19.270;2023-06-14T01:14:12;62501.59;;;-141.66;100.00
71059;BME280;70265;47.576;19.270;2023-06-14T01:15:15;62501.59;;;-141.66;100.00
71059;BME280;70265;47.576;19.270;2023-06-14T01:16:20;62501.59;;;-141.66;100.00
71059;BME280;70265;47.576;19.270;2023-06-14T01:17:22;62501.59;;;-141.66;100.00
71059;BME280;70265;47.576;19.270;2023-06-14T01:18:28;62501.59;;;-141.66;100.00
71059;BME280;70265;47.576;19.270;2023-06-14T01:19:30;62501.59;;;-141.66;100.00
71059;BME280;70265;47.576;19.270;2023-06-14T01:20:36;62501.59;;;-141.66;100.00
71059;BME280;70265;47.576;19.270;2023-06-14T01:21:38;62501.59;;;-141.66;100.00
71059;BME280;70265;47.576;19.270;2023-06-14T01:22:50;62501.59;;;-141.66;100.00
71059;BME280;70265;47.576;19.270;2023-06-14T01:23:52;62501.59;;;-141.66;100.00
71059;BME280;70265;47.576;19.270;2023-06-14T01:24:56;62501.59;;;-141.66;100.00
71059;BME280;70265;47.576;19.270;2023-06-14T01:25:59;62501.59;;;-141.66;100.00
71059;BME280;70265;47.576;19.270;2023-06-14T01:27:05;62501.59;;;-141.66;100.00
71059;BME280;70265;47.576;19.270;2023-06-14T01:28:08;62501.59;;;-141.66;100.00
71059;BME280;70265;47.576;19.270;2023-06-14T01:29:14;62501.59;;;-141.66;100.00
71059;BME280;70265;47.576;19.270;2023-06-14T01:30:19;62501.59;;;-141.66;100.00
71059;BME280;70265;47.576;19.270;2023-06-14T01:31:24;62501.59;;;-141.66;100.00
71059;BME280;70265;47.576;19.270;2023-06-14T01:32:26;62501.59;;;-141.66;100.00
71059;BME280;70265;47.576;19.270;2023-06-14T01:33:33;62501.59;;;-141.66;100.00
71059;BME280;70265;47.576;19.270;2023-06-14T01:34:35;62501.59;;;-141.66;100.00
71059;BME280;70265;47.576;19.270;2023-06-14T01:35:40;62501.59;;;-141.66;100.00
71059;BME280;70265;47.576;19.270;2023-06-14T01:36:43;62501.59;;;-141.66;100.00
71059;BME280;70265;47.576;19.270;2023-06-14T01:37:51;62501.59;;;-141.66;100.00
71059;BME280;70265;47.576;19.270;2023-06-14T01:38:54;62501.59;;;-141.66;100.00
71059;BME280;70265;47.576;19.270;2023-06-14T01:39:58;62501.59;;;-141.66;100.00
71059;BME280;70265;47.576;19.270;2023-06-14T01:41:00;62501.59;;;-141.66;100.00
71059;BME280;70265;47.576;19.270;2023-06-14T01:42:06;62501.59;;;-141.66;100.00
71059;BME280;70265;47.576;19.270;2023-06-14T01:43:07;62501.59;;;-141.66;100.00
71059;BME280;70265;47.576;19.270;2023-06-14T01:44:14;62501.59;;;-141.66;100.00
71059;BME280;70265;47.576;19.270;2023-06-14T01:45:16;62501.59;;;-141.66;100.00
71059;BME280;70265;47.576;19.270;2023-06-14T01:46:21;62501.59;;;-141.66;100.00
71059;BME280;70265;47.576;19.270;2023-06-14T01:47:22;62501.59;;;-141.66;100.00
71059;BME280;70265;47.576;19.270;2023-06-14T01:48:26;62501.59;;;-141.66;100.00
71059;BME280;70265;47.576;19.270;2023-06-14T01:49:28;62501.59;;;-141.66;100.00
71059;BME280;70265;47.576;19.270;2023-06-14T01:50:32;62501.59;;;-141.66;100.00
71059;BME280;70265;47.576;19.270;2023-06-14T01:51:33;62501.59;;;-141.66;100.00
71059;BME280;70265;47.576;19.270;2023-06-14T01:52:37;62501.59;;;-141.66;100.00
71059;BME280;70265;47.576;19.270;2023-06-14T01:53:41;62501.59;;;-141.66;100.00
71059;BME280;70265;47.576;19.270;2023-06-14T01:54:45;62501.59;;;-141.66;100.00
71059;BME280;70265;47.576;19.270;2023-06-14T01:55:48;62501.59;;;-141.66;100.00
71059;BME280;70265;47.576;19.270;2023-06-14T01:56:54;62501.59;;;-141.66;100.00
71059;BME280;70265;47.576;19.270;2023-06-14T01:57:57;62501.59;;;-141.66;100.00
71059;BME280;70265;47.576;19.270;2023-06-14T01:59:00;62501.59;;;-141.66;100.00
71059;BME280;70265;47.576;19.270;2023-06-14T02:00:02;62501.59;;;-141.66;100.00
71059;BME280;70265;47.576;19.270;2023-06-14T02:01:09;62501.59;;;-141.66;100.00
71059;BME280;70265;47.576;19.270;2023-06-14T02:02:12;62501.59;;;-141.66;100.00
71059;BME280;70265;47.576;19.270;2023-06-14T02:03:16;62501.59;;;-141.66;100.00
71059;BME280;70265;47.576;19.270;2023-06-14T02:04:17;62501.59;;;-141.66;100.00
71059;BME280;70265;47.576;19.270;2023-06-14T02:05:21;62501.59;;;-141.66;100.00
71059;BME280;70265;47.576;19.270;2023-06-14T02:06:26;62501.59;;;-141.66;100.00
71059;BME280;70265;47.576;19.270;2023-06-14T02:07:30;62501.59;;;-141.66;100.00
71059;BME280;70265;47.576;19.270;2023-06-14T02:08:31;62501.59;;;-141.66;100.00
71059;BME280;70265;47.576;19.270;2023-06-14T02:09:37;62501.59;;;-141.66;100.00
71059;BME280;70265;47.576;19.270;2023-06-14T02:10:39;62501.59;;;-141.66;100.00
71059;BME280;70265;47.576;19.270;2023-06-14T02:11:43;62501.59;;;-141.66;100.00
71059;BME280;70265;47.576;19.270;2023-06-14T02:12:44;62501.59;;;-141.66;100.00
71059;BME280;70265;47.576;19.270;2023-06-14T02:13:48;62501.59;;;-141.66;100.00
71059;BME280;70265;47.576;19.270;2023-06-14T02:14:49;62501.59;;;-141.66;100.00
71059;BME280;70265;47.576;19.270;2023-06-14T02:15:53;62501.59;;;-141.66;100.00
71059;BME280;70265;47.576;19.270;2023-06-14T02:16:55;62501.59;;;-141.66;100.00
71059;BME280;70265;47.576;19.270;2023-06-14T02:17:59;62501.59;;;-141.66;100.00
71059;BME280;70265;47.576;19.270;2023-06-14T02:19:01;62501.59;;;-141.66;100.00
71059;BME280;70265;47.576;19.270;2023-06-14T02:20:11;62501.59;;;-141.66;100.00
71059;BME280;70265;47.576;19.270;2023-06-14T02:21:13;62501.59;;;-141.66;100.00
71059;BME280;70265;47.576;19.270;2023-06-14T02:22:17;62501.59;;;-141.66;100.00
71059;BME280;70265;47.576;19.270;2023-06-14T02:23:18;62501.59;;;-141.66;100.00
71059;BME280;70265;47.576;19.270;2023-06-14T02:24:22;62501.59;;;-141.66;100.00
71059;BME280;70265;47.576;19.270;2023-06-14T02:25:27;62501.59;;;-141.66;100.00
71059;BME280;70265;47.576;19.270;2023-06-14T02:26:31;62501.59;;;-141.66;100.00
71059;BME280;70265;47.576;19.270;2023-06-14T02:27:32;62501.59;;;-141.66;100.00
71059;BME280;70265;47.576;19.270;2023-06-14T02:28:37;62501.59;;;-141.66;100.00
71059;BME280;70265;47.576;19.270;2023-06-14T02:29:38;62501.59;;;-141.66;100.00
71059;BME280;70265;47.576;19.270;2023-06-14T02:30:42;62501.59;;;-141.66;100.00
71059;BME280;70265;47.576;19.270;2023-06-14T02:31:43;62501.59;;;-141.66;100.00
71059;BME280;70265;47.576;19.270;2023-06-14T02:32:49;62501.59;;;-141.66;100.00
71059;BME280;70265;47.576;19.270;2023-06-14T02:33:51;62501.59;;;-141.66;100.00
71059;BME280;70265;47.576;19.270;2023-06-14T02:34:55;62501.59;;;-141.66;100.00
71059;BME280;70265;47.576;19.270;2023-06-14T02:35:57;62501.59;;;-141.66;100.00
71059;BME280;70265;47.576;19.270;2023-06-14T02:37:03;62501.59;;;-141.66;100.00
71059;BME280;70265;47.576;19.270;2023-06-14T02:38:05;62501.59;;;-141.66;100.00
71059;BME280;70265;47.576;19.270;2023-06-14T02:39:08;62501.59;;;-141.66;100.00
71059;BME280;70265;47.576;19.270;2023-06-14T02:40:12;62501.59;;;-141.66;100.00
71059;BME280;70265;47.576;19.270;2023-06-14T02:41:15;62501.59;;;-141.66;100.00
71059;BME280;70265;47.576;19.270;2023-06-14T02:42:19;62501.59;;;-141.66;100.00
71059;BME280;70265;47.576;19.270;2023-06-14T02:43:20;62501.59;;;-141.66;100.00
71059;BME280;70265;47.576;19.270;2023-06-14T02:44:25;62501.59;;;-141.66;100.00
71059;BME280;70265;47.576;19.270;2023-06-14T02:45:27;62501.59;;;-141.66;100.00
71059;BME280;70265;47.576;19.270;2023-06-14T02:46:31;62501.59;;;-141.66;100.00
71059;BME280;70265;47.576;19.270;2023-06-14T02:47:32;62501.59;;;-141.66;100.00
71059;BME280;70265;47.576;19.270;2023-06-14T02:48:37;62501.59;;;-141.66;100.00
71059;BME280;70265;47.576;19.270;2023-06-14T02:49:38;62501.59;;;-141.66;100.00
71059;BME280;70265;47.576;19.270;2023-06-14T02:50:42;62501.59;;;-141.66;100.00
71059;BME280;70265;47.576;19.270;2023-06-14T02:51:47;62501.59;;;-141.66;100.00
71059;BME280;70265;47.576;19.270;2023-06-14T02:52:48;62501.59;;;-141.66;100.00
71059;BME280;70265;47.576;19.270;2023-06-14T02:53:53;62501.59;;;-141.66;100.00
71059;BME280;70265;47.576;19.270;2023-06-14T02:54:54;62501.59;;;-141.66;100.00
71059;BME280;70265;47.576;19.270;2023-06-14T02:55:59;62501.59;;;-141.66;100.00
71059;BME280;70265;47.576;19.270;2023-06-14T02:57:03;62501.59;;;-141.66;100.00
71059;BME280;70265;47.576;19.270;2023-06-14T02:58:08;62501.59;;;-141.66;100.00
71059;BME280;70265;47.576;19.270;2023-06-14T02:59:12;62501.59;;;-141.66;100.00
71059;BME280;70265;47.576;19.270;2023-06-14T03:00:14;62501.59;;;-141.66;100.00
71059;BME280;70265;47.576;19.270;2023-06-14T03:01:19;62501.59;;;-141.66;100.00
71059;BME280;70265;47.576;19.270;2023-06-14T03:02:21;62501.59;;;-141.66;100.00
71059;BME280;70265;47.576;19.270;2023-06-14T03:03:25;62501.59;;;-141.66;100.00
71059;BME280;70265;47.576;19.270;2023-06-14T03:04:27;62501.59;;;-141.66;100.00
71059;BME280;70265;47.576;19.270;2023-06-14T03:05:35;62501.59;;;-141.66;100.00
71059;BME280;70265;47.576;19.270;2023-06-14T03:06:36;62501.59;;;-141.66;100.00
71059;BME280;70265;47.576;19.270;2023-06-14T03:07:40;62501.59;;;-141.66;100.00
71059;BME280;70265;47.576;19.270;2023-06-14T03:08:45;62501.59;;;-141.66;100.00
71059;BME280;70265;47.576;19.270;2023-06-14T03:09:49;62501.59;;;-141.66;100.00
71059;BME280;70265;47.576;19.270;2023-06-14T03:10:53;62501.59;;;-141.66;100.00
71059;BME280;70265;47.576;19.270;2023-06-14T03:11:54;62501.59;;;-141.66;100.00
71059;BME280;70265;47.576;19.270;2023-06-14T03:13:01;62501.59;;;-141.66;100.00
71059;BME280;70265;47.576;19.270;2023-06-14T03:14:02;62501.59;;;-141.66;100.00
71059;BME280;70265;47.576;19.270;2023-06-14T03:15:09;62501.59;;;-141.66;100.00
71059;BME280;70265;47.576;19.270;2023-06-14T03:16:11;62501.59;;;-141.66;100.00
71059;BME280;70265;47.576;19.270;2023-06-14T03:17:15;62501.59;;;-141.66;100.00
71059;BME280;70265;47.576;19.270;2023-06-14T03:18:18;62501.59;;;-141.66;100.00
71059;BME280;70265;47.576;19.270;2023-06-14T03:19:23;62501.59;;;-141.66;100.00
71059;BME280;70265;47.576;19.270;2023-06-14T03:20:24;62501.59;;;-141.66;100.00
71059;BME280;70265;47.576;19.270;2023-06-14T03:21:33;62501.59;;;-141.66;100.00
71059;BME280;70265;47.576;19.270;2023-06-14T03:22:35;62501.59;;;-141.66;100.00
71059;BME280;70265;47.576;19.270;2023-06-14T03:23:40;62501.59;;;-141.66;100.00
71059;BME280;70265;47.576;19.270;2023-06-14T03:24:41;62501.59;;;-141.66;100.00
71059;BME280;70265;47.576;19.270;2023-06-14T03:25:45;62501.59;;;-141.66;100.00
71059;BME280;70265;47.576;19.270;2023-06-14T03:26:46;62501.59;;;-141.66;100.00
71059;BME280;70265;47.576;19.270;2023-06-14T03:27:50;62501.59;;;-141.66;100.00
71059;BME280;70265;47.576;19.270;2023-06-14T03:28:54;62501.59;;;-141.66;100.00
71059;BME280;70265;47.576;19.270;2023-06-14T03:29:58;62501.59;;;-141.66;100.00
71059;BME280;70265;47.576;19.270;2023-06-14T03:30:59;62501.59;;;-141.66;100.00
71059;BME280;70265;47.576;19.270;2023-06-14T03:32:04;62501.59;;;-141.66;100.00
71059;BME280;70265;47.576;19.270;2023-06-14T03:33:05;62501.59;;;-141.66;100.00
71059;BME280;70265;47.576;19.270;2023-06-14T03:34:10;62501.59;;;-141.66;100.00
71059;BME280;70265;47.576;19.270;2023-06-14T03:35:11;62501.59;;;-141.66;100.00
71059;BME280;70265;47.576;19.270;2023-06-14T03:36:17;62501.59;;;-141.66;100.00
71059;BME280;70265;47.576;19.270;2023-06-14T03:37:21;62501.59;;;-141.66;100.00
71059;BME280;70265;47.576;19.270;2023-06-14T03:38:22;62501.59;;;-141.66;100.00
71059;BME280;70265;47.576;19.270;2023-06-14T03:39:26;62501.59;;;-141.66;100.00
71059;BME280;70265;47.576;19.270;2023-06-14T03:40:28;62501.59;;;-141.66;100.00
71059;BME280;70265;47.576;19.270;2023-06-14T03:41:33;62501.59;;;-141.66;100.00
71059;BME280;70265;47.576;19.270;2023-06-14T03:42:34;62501.59;;;-141.66;100.00
71059;BME280;70265;47.576;19.270;2023-06-14T03:43:38;62501.59;;;-141.66;100.00
71059;BME280;70265;47.576;19.270;2023-06-14T03:44:42;62501.59;;;-141.66;100.00
71059;BME280;70265;47.576;19.270;2023-06-14T03:45:46;62501.59;;;-141.66;100.00
71059;BME280;70265;47.576;19.270;2023-06-14T03:46:47;62501.59;;;-141.66;100.00
71059;BME280;70265;47.576;19.270;2023-06-14T03:47:51;62501.59;;;-141.66;100.00
71059;BME280;70265;47.576;19.270;2023-06-14T03:48:53;62501.59;;;-141.66;100.00
71059;BME280;70265;47.576;19.270;2023-06-14T03:49:57;62501.59;;;-141.66;100.00
71059;BME280;70265;47.576;19.270;2023-06-14T03:50:59;62501.59;;;-141.66;100.00
71059;BME280;70265;47.576;19.270;2023-06-14T03:52:03;62501.59;;;-141.66;100.00
71059;BME280;70265;47.576;19.270;2023-06-14T03:53:05;62501.59;;;-141.66;100.00
71059;BME280;70265;47.576;19.270;2023-06-14T03:54:09;62501.59;;;-141.66;100.00
71059;BME280;70265;47.576;19.270;2023-06-14T03:55:10;62501.59;;;-141.66;100.00
71059;BME280;70265;47.576;19.270;2023-06-14T03:56:14;62501.59;;;-141.66;100.00
71059;BME280;70265;47.576;19.270;2023-06-14T03:57:16;62501.59;;;-141.66;100.00
71059;BME280;70265;47.576;19.270;2023-06-14T03:58:20;62501.59;;;-141.66;100.00
71059;BME280;70265;47.576;19.270;2023-06-14T03:59:24;62501.59;;;-141.66;100.00
71059;BME280;70265;47.576;19.270;2023-06-14T04:00:31;62501.59;;;-141.66;100.00
71059;BME280;70265;47.576;19.270;2023-06-14T04:01:33;62501.59;;;-141.66;100.00
71059;BME280;70265;47.576;19.270;2023-06-14T04:02:36;62501.59;;;-141.66;100.00
71059;BME280;70265;47.576;19.270;2023-06-14T04:03:38;62501.59;;;-141.66;100.00
71059;BME280;70265;47.576;19.270;2023-06-14T04:04:42;62501.59;;;-141.66;100.00
71059;BME280;70265;47.576;19.270;2023-06-14T04:05:44;62501.59;;;-141.66;100.00
71059;BME280;70265;47.576;19.270;2023-06-14T04:06:50;62501.59;;;-141.66;100.00
71059;BME280;70265;47.576;19.270;2023-06-14T04:07:52;62501.59;;;-141.66;100.00
71059;BME280;70265;47.576;19.270;2023-06-14T04:08:58;62501.59;;;-141.66;100.00
71059;BME280;70265;47.576;19.270;2023-06-14T04:10:05;62501.59;;;-141.66;100.00
71059;BME280;70265;47.576;19.270;2023-06-14T04:11:10;62501.59;;;-141.66;100.00
71059;BME280;70265;47.576;19.270;2023-06-14T04:12:11;62501.59;;;-141.66;100.00
71059;BME280;70265;47.576;19.270;2023-06-14T04:13:15;62501.59;;;-141.66;100.00
71059;BME280;70265;47.576;19.270;2023-06-14T04:14:18;62501.59;;;-141.66;100.00
71059;BME280;70265;47.576;19.270;2023-06-14T04:15:22;62501.59;;;-141.66;100.00
71059;BME280;70265;47.576;19.270;2023-06-14T04:16:28;62501.59;;;-141.66;100.00
71059;BME280;70265;47.576;19.270;2023-06-14T04:17:33;62501.59;;;-141.66;100.00
71059;BME280;70265;47.576;19.270;2023-06-14T04:18:34;62501.59;;;-141.66;100.00
71059;BME280;70265;47.576;19.270;2023-06-14T04:19:38;62501.59;;;-141.66;100.00
71059;BME280;70265;47.576;19.270;2023-06-14T04:20:39;62501.59;;;-141.66;100.00
71059;BME280;70265;47.576;19.270;2023-06-14T04:21:44;62501.59;;;-141.66;100.00
71059;BME280;70265;47.576;19.270;2023-06-14T04:22:46;62501.59;;;-141.66;100.00
71059;BME280;70265;47.576;19.270;2023-06-14T04:23:50;62501.59;;;-141.66;100.00
71059;BME280;70265;47.576;19.270;2023-06-14T04:24:53;62501.59;;;-141.66;100.00
71059;BME280;70265;47.576;19.270;2023-06-14T04:25:57;62501.59;;;-141.66;100.00
71059;BME280;70265;47.576;19.270;2023-06-14T04:27:03;62501.59;;;-141.66;100.00
71059;BME280;70265;47.576;19.270;2023-06-14T04:28:07;62501.59;;;-141.66;100.00
71059;BME280;70265;47.576;19.270;2023-06-14T04:29:09;62501.59;;;-141.66;100.00
71059;BME280;70265;47.576;19.270;2023-06-14T04:30:16;62501.59;;;-141.66;100.00
71059;BME280;70265;47.576;19.270;2023-06-14T04:31:29;62501.59;;;-141.66;100.00
71059;BME280;70265;47.576;19.270;2023-06-14T05:23:55;68877.09;;;0.00;nan
71059;BME280;70265;47.576;19.270;2023-06-14T05:24:58;68872.53;;;0.00;nan
71059;BME280;70265;47.576;19.270;2023-06-14T05:26:00;68852.69;;;0.00;nan
71059;BME280;70265;47.576;19.270;2023-06-14T05:27:05;68846.59;;;0.00;nan
71059;BME280;70265;47.576;19.270;2023-06-14T05:28:06;68845.06;;;0.00;nan
71059;BME280;70265;47.576;19.270;2023-06-14T05:29:10;68835.91;;;0.00;nan
71059;BME280;70265;47.576;19.270;2023-06-14T05:30:13;68823.69;;;0.00;nan
71059;BME280;70265;47.576;19.270;2023-06-14T05:31:17;68848.13;;;0.00;nan
71059;BME280;70265;47.576;19.270;2023-06-14T05:32:18;68845.06;;;0.00;nan
71059;BME280;70265;47.576;19.270;2023-06-14T05:33:22;68837.44;;;0.00;nan
71059;BME280;70265;47.576;19.270;2023-06-14T05:34:23;68820.66;;;0.00;nan
71059;BME280;70265;47.576;19.270;2023-06-14T05:35:27;68823.69;;;0.00;nan
71059;BME280;70265;47.576;19.270;2023-06-14T05:36:28;68811.50;;;0.00;nan
71059;BME280;70265;47.576;19.270;2023-06-14T05:37:32;68823.69;;;0.00;nan
71059;BME280;70265;47.576;19.270;2023-06-14T05:38:33;68809.97;;;0.00;nan
71059;BME280;70265;47.576;19.270;2023-06-14T05:39:40;68817.59;;;0.00;nan
71059;BME280;70265;47.576;19.270;2023-06-14T05:40:41;68800.81;;;0.00;nan
71059;BME280;70265;47.576;19.270;2023-06-14T05:41:45;68817.59;;;0.00;nan
71059;BME280;70265;47.576;19.270;2023-06-14T05:42:46;68816.06;;;0.00;nan
71059;BME280;70265;47.576;19.270;2023-06-14T05:43:51;68819.13;;;0.00;nan
71059;BME280;70265;47.576;19.270;2023-06-14T05:44:52;68835.91;;;0.00;nan
71059;BME280;70265;47.576;19.270;2023-06-14T05:45:56;68842.00;;;0.00;nan
71059;BME280;70265;47.576;19.270;2023-06-14T05:46:57;68855.75;;;0.00;nan
71059;BME280;70265;47.576;19.270;2023-06-14T05:48:01;68835.91;;;0.00;nan
71059;BME280;70265;47.576;19.270;2023-06-14T05:49:02;68842.00;;;0.00;nan
71059;BME280;70265;47.576;19.270;2023-06-14T05:50:09;68823.69;;;0.00;nan
71059;BME280;70265;47.576;19.270;2023-06-14T05:51:11;68816.06;;;0.00;nan
71059;BME280;70265;47.576;19.270;2023-06-14T05:52:19;68814.56;;;0.00;nan
71059;BME280;70265;47.576;19.270;2023-06-14T05:53:21;68808.44;;;0.00;nan
71059;BME280;70265;47.576;19.270;2023-06-14T05:54:25;68808.44;;;0.00;nan
71059;BME280;70265;47.576;19.270;2023-06-14T05:55:29;68803.88;;;0.00;nan
71059;BME280;70265;47.576;19.270;2023-06-14T05:56:33;68787.09;;;0.00;nan
71059;BME280;70265;47.576;19.270;2023-06-14T05:57:34;68782.50;;;0.00;nan
71059;BME280;70265;47.576;19.270;2023-06-14T05:58:38;68787.09;;;0.00;nan
71059;BME280;70265;47.576;19.270;2023-06-14T05:59:39;68773.34;;;0.00;nan
71059;BME280;70265;47.576;19.270;2023-06-14T06:00:43;68777.94;;;0.00;nan
71059;BME280;70265;47.576;19.270;2023-06-14T06:01:44;68822.19;;;0.00;nan
71059;BME280;70265;47.576;19.270;2023-06-14T06:02:49;68828.28;;;0.00;nan
71059;BME280;70265;47.576;19.270;2023-06-14T06:03:52;68825.22;;;0.00;nan
71059;BME280;70265;47.576;19.270;2023-06-14T06:04:57;68817.59;;;0.00;nan
71059;BME280;70265;47.576;19.270;2023-06-14T06:07:04;98695.91;;;16.35;86.91
71059;BME280;70265;47.576;19.270;2023-06-14T06:08:08;98689.19;;;16.32;86.76
71059;BME280;70265;47.576;19.270;2023-06-14T06:09:09;98692.91;;;16.44;88.56
71059;BME280;70265;47.576;19.270;2023-06-14T06:10:15;98698.47;;;16.49;86.46
71059;BME280;70265;47.576;19.270;2023-06-14T06:11:16;98690.66;;;16.69;86.93
71059;BME280;70265;47.576;19.270;2023-06-14T06:12:20;98699.28;;;16.84;86.98
71059;BME280;70265;47.576;19.270;2023-06-14T06:13:21;98697.44;;;16.85;83.87
71059;BME280;70265;47.576;19.270;2023-06-14T06:14:25;98696.47;;;16.92;85.71
71059;BME280;70265;47.576;19.270;2023-06-14T06:15:26;98697.22;;;17.20;86.22
71059;BME280;70265;47.576;19.270;2023-06-14T06:16:30;98697.16;;;17.07;85.66